Time;durP1;ratioP1;P1;durP2;ratioP2;P2;SDS_P1;SDS_P2;PMS_P1;PMS_P2;Temp;Humidity;BMP_temperature;BMP_pressure;BME280_temperature;BME280_humidity;BME280_pressure;Samples;Min_cycle;Max_cycle;Signal;HPM_P1;HPM_P2
2023/03/08 00:01:15;;;;;;;8.88;5.65;;;;;;;;;;5119610;28;20201;-76
2023/03/08 00:03:41;;;;;;;8.20;5.90;;;;;;;;;;5119029;28;20240;-77
2023/03/08 00:06:08;;;;;;;7.30;5.32;;;;;;;;;;5119144;28;20228;-76
2023/03/08 00:08:34;;;;;;;9.13;5.70;;;;;;;;;;5119371;28;20625;-76
2023/03/08 00:11:04;;;;;;;9.02;5.53;;;;;;;;;;5119353;28;20304;-76
2023/03/08 00:13:30;;;;;;;10.10;5.25;;;;;;;;;;5119957;28;20183;-76
2023/03/08 00:15:59;;;;;;;8.57;5.70;;;;;;;;;;5119122;28;20174;-76
2023/03/08 00:18:25;;;;;;;12.45;5.80;;;;;;;;;;5101463;28;20206;-76
2023/03/08 00:20:58;;;;;;;9.53;5.37;;;;;;;;;;5098888;28;20174;-76
2023/03/08 00:23:24;;;;;;;8.27;5.30;;;;;;;;;;5098570;28;20467;-76
2023/03/08 00:25:53;;;;;;;10.57;5.67;;;;;;;;;;5097702;28;20667;-76
2023/03/08 00:28:19;;;;;;;8.68;5.60;;;;;;;;;;5098292;28;20403;-76
2023/03/08 00:30:45;;;;;;;12.68;6.25;;;;;;;;;;5097744;28;20183;-76
2023/03/08 00:33:11;;;;;;;6.60;4.70;;;;;;;;;;5098575;28;20196;-77
2023/03/08 00:35:37;;;;;;;7.13;5.47;;;;;;;;;;5098553;28;20181;-76
2023/03/08 00:38:03;;;;;;;11.57;5.70;;;;;;;;;;5098220;28;20178;-76
2023/03/08 00:40:28;;;;;;;9.47;5.80;;;;;;;;;;5097635;28;20506;-76
2023/03/08 00:42:54;;;;;;;10.97;5.77;;;;;;;;;;5097290;28;20465;-76
2023/03/08 00:45:20;;;;;;;13.90;5.90;;;;;;;;;;5097297;28;20424;-77
2023/03/08 00:47:46;;;;;;;7.33;5.03;;;;;;;;;;5097421;28;20783;-76
2023/03/08 00:50:12;;;;;;;9.23;5.93;;;;;;;;;;5096894;28;20409;-77
2023/03/08 00:52:38;;;;;;;10.70;5.85;;;;;;;;;;5097511;28;20410;-76
2023/03/08 00:55:04;;;;;;;7.90;5.20;;;;;;;;;;5097876;28;20196;-77
2023/03/08 00:57:32;;;;;;;9.25;6.10;;;;;;;;;;5097291;28;20402;-76
2023/03/08 00:59:58;;;;;;;7.20;5.60;;;;;;;;;;5097246;28;20585;-76
2023/03/08 01:02:24;;;;;;;10.40;6.93;;;;;;;;;;5097547;28;20235;-76
2023/03/08 01:04:50;;;;;;;7.90;6.25;;;;;;;;;;5097073;28;20249;-77
2023/03/08 01:07:16;;;;;;;11.00;6.87;;;;;;;;;;5097274;28;20173;-77
2023/03/08 01:09:41;;;;;;;12.25;6.85;;;;;;;;;;5097282;28;20460;-77
2023/03/08 01:12:08;;;;;;;9.40;6.17;;;;;;;;;;5097296;28;20234;-77
2023/03/08 01:14:33;;;;;;;10.65;6.57;;;;;;;;;;5097678;28;20411;-76
2023/03/08 01:16:59;;;;;;;11.93;6.97;;;;;;;;;;5102970;28;20183;-77
2023/03/08 01:19:25;;;;;;;12.70;7.18;;;;;;;;;;5118133;28;20406;-76
2023/03/08 01:21:51;;;;;;;11.52;6.35;;;;;;;;;;5117506;27;20176;-77
2023/03/08 01:24:17;;;;;;;11.27;6.60;;;;;;;;;;5119328;27;20179;-77
2023/03/08 01:26:43;;;;;;;11.10;6.53;;;;;;;;;;5138092;27;20427;-77
2023/03/08 01:29:09;;;;;;;13.02;7.50;;;;;;;;;;5137435;27;20183;-77
2023/03/08 01:31:35;;;;;;;11.37;6.43;;;;;;;;;;5137829;28;20180;-77
2023/03/08 01:34:01;;;;;;;11.33;6.63;;;;;;;;;;5137912;28;20816;-76
2023/03/08 01:36:28;;;;;;;9.30;6.40;;;;;;;;;;5138435;28;20405;-77
2023/03/08 01:38:54;;;;;;;15.55;6.30;;;;;;;;;;5138635;28;20167;-77
2023/03/08 01:41:24;;;;;;;9.75;5.95;;;;;;;;;;5138940;28;20170;-76
2023/03/08 01:43:50;;;;;;;8.20;5.88;;;;;;;;;;5138364;28;20195;-77
2023/03/08 01:46:22;;;;;;;10.32;6.43;;;;;;;;;;5139132;28;20172;-76
2023/03/08 01:48:52;;;;;;;10.07;5.70;;;;;;;;;;5137971;28;20172;-77
2023/03/08 01:51:36;;;;;;;10.20;6.28;;;;;;;;;;5138328;28;20168;-76
2023/03/08 01:54:06;;;;;;;8.15;5.70;;;;;;;;;;5138095;28;20233;-76
2023/03/08 01:56:32;;;;;;;9.20;6.07;;;;;;;;;;5138657;28;20167;-76
2023/03/08 01:58:59;;;;;;;9.05;5.90;;;;;;;;;;5138651;28;20212;-76
2023/03/08 02:01:25;;;;;;;10.43;6.20;;;;;;;;;;5138303;28;20237;-76
2023/03/08 02:03:51;;;;;;;16.40;6.00;;;;;;;;;;5119334;28;20214;-75
2023/03/08 02:06:19;;;;;;;8.88;5.63;;;;;;;;;;5119872;28;20358;-76
2023/03/08 02:08:45;;;;;;;9.77;5.60;;;;;;;;;;5141554;27;20504;-76
2023/03/08 02:11:12;;;;;;;9.63;5.15;;;;;;;;;;5142483;27;20164;-76
2023/03/08 02:13:38;;;;;;;8.27;5.75;;;;;;;;;;5142356;27;20176;-76
2023/03/08 02:16:07;;;;;;;8.30;5.18;;;;;;;;;;5141959;27;20183;-76
2023/03/08 02:18:33;;;;;;;7.18;4.85;;;;;;;;;;5142285;27;20235;-76
2023/03/08 02:20:59;;;;;;;8.27;5.30;;;;;;;;;;5141728;27;20175;-76
2023/03/08 02:23:25;;;;;;;7.00;4.75;;;;;;;;;;5142181;27;20509;-76
2023/03/08 02:25:53;;;;;;;10.45;5.22;;;;;;;;;;5142139;27;20173;-76
2023/03/08 02:28:19;;;;;;;10.00;4.78;;;;;;;;;;5142050;27;20556;-76
2023/03/08 02:30:46;;;;;;;9.27;5.10;;;;;;;;;;5142184;27;20176;-76
2023/03/08 02:33:12;;;;;;;6.10;4.53;;;;;;;;;;5141331;27;20268;-76
2023/03/08 02:35:41;;;;;;;6.60;5.22;;;;;;;;;;5141675;27;20230;-76
2023/03/08 02:38:07;;;;;;;8.52;4.28;;;;;;;;;;5141645;27;20260;-76
2023/03/08 02:40:33;;;;;;;8.40;4.10;;;;;;;;;;5141344;27;20164;-76
2023/03/08 02:42:59;;;;;;;10.50;4.43;;;;;;;;;;5141357;27;20199;-76
2023/03/08 02:45:25;;;;;;;9.30;4.63;;;;;;;;;;5141470;27;20456;-76
2023/03/08 02:47:51;;;;;;;7.00;4.80;;;;;;;;;;5141444;27;20399;-77
2023/03/08 02:50:17;;;;;;;6.55;4.60;;;;;;;;;;5141513;27;20431;-76
2023/03/08 02:52:43;;;;;;;7.57;4.70;;;;;;;;;;5141386;27;20178;-76
2023/03/08 02:55:09;;;;;;;7.30;4.57;;;;;;;;;;5141756;27;20178;-76
2023/03/08 02:57:35;;;;;;;5.88;4.70;;;;;;;;;;5141336;27;20190;-76
2023/03/08 03:00:01;;;;;;;7.60;4.90;;;;;;;;;;5123166;27;20545;-76
2023/03/08 03:02:27;;;;;;;7.70;5.03;;;;;;;;;;5141058;27;20460;-76
2023/03/08 03:04:53;;;;;;;7.77;5.37;;;;;;;;;;5140723;27;20291;-76
2023/03/08 03:07:19;;;;;;;6.90;4.80;;;;;;;;;;5140937;27;20397;-76
2023/03/08 03:09:45;;;;;;;8.97;5.77;;;;;;;;;;5123253;27;20773;-76
2023/03/08 03:12:11;;;;;;;6.50;4.90;;;;;;;;;;5141089;27;20398;-76
2023/03/08 03:14:37;;;;;;;6.90;4.65;;;;;;;;;;5140801;27;20420;-76
2023/03/08 03:17:03;;;;;;;11.80;6.17;;;;;;;;;;5140652;27;20635;-76
2023/03/08 03:19:29;;;;;;;6.87;5.53;;;;;;;;;;5139653;27;20450;-76
2023/03/08 03:21:55;;;;;;;7.68;6.68;;;;;;;;;;5140184;27;20440;-76
2023/03/08 03:24:21;;;;;;;10.53;6.93;;;;;;;;;;5140573;27;20238;-76
2023/03/08 03:26:49;;;;;;;9.50;6.03;;;;;;;;;;5140790;27;20470;-76
2023/03/08 03:29:15;;;;;;;9.38;6.70;;;;;;;;;;5140331;27;20489;-76
2023/03/08 03:31:41;;;;;;;10.77;6.57;;;;;;;;;;5140823;27;20214;-76
2023/03/08 03:34:08;;;;;;;13.00;7.05;;;;;;;;;;5140816;27;20955;-76
2023/03/08 03:36:34;;;;;;;15.27;8.07;;;;;;;;;;5141107;27;20180;-76
2023/03/08 03:39:00;;;;;;;12.55;8.32;;;;;;;;;;5140207;27;20179;-76
2023/03/08 03:41:26;;;;;;;11.15;6.97;;;;;;;;;;5140354;27;20171;-76
2023/03/08 03:43:52;;;;;;;10.43;7.40;;;;;;;;;;5140395;27;20202;-76
2023/03/08 03:46:19;;;;;;;12.35;8.48;;;;;;;;;;5140009;27;20492;-76
2023/03/08 03:48:46;;;;;;;9.98;7.30;;;;;;;;;;5139994;27;20175;-76
2023/03/08 03:51:19;;;;;;;12.55;6.93;;;;;;;;;;5139911;27;20188;-76
2023/03/08 03:53:45;;;;;;;12.38;7.30;;;;;;;;;;5140091;27;20185;-76
2023/03/08 03:56:22;;;;;;;9.75;6.78;;;;;;;;;;5140286;27;20208;-76
2023/03/08 03:58:49;;;;;;;13.25;7.45;;;;;;;;;;5140319;27;20681;-76
2023/03/08 04:01:19;;;;;;;11.70;7.40;;;;;;;;;;5139821;27;21056;-76
2023/03/08 04:03:46;;;;;;;9.80;6.60;;;;;;;;;;5139388;27;20203;-76
2023/03/08 04:06:13;;;;;;;11.43;6.90;;;;;;;;;;5139440;27;20219;-76
2023/03/08 04:08:42;;;;;;;14.57;7.40;;;;;;;;;;5140500;27;20171;-76
2023/03/08 04:11:09;;;;;;;12.30;7.03;;;;;;;;;;5139847;27;20209;-76
2023/03/08 04:13:35;;;;;;;11.38;6.80;;;;;;;;;;5139410;27;20581;-76
2023/03/08 04:16:08;;;;;;;10.63;7.00;;;;;;;;;;5139098;27;20175;-76
2023/03/08 04:18:34;;;;;;;11.95;7.28;;;;;;;;;;5139736;27;20178;-76
2023/03/08 04:21:00;;;;;;;12.10;6.97;;;;;;;;;;5138777;27;20175;-76
2023/03/08 04:23:26;;;;;;;9.20;6.37;;;;;;;;;;5139236;27;20533;-76
2023/03/08 04:25:51;;;;;;;12.80;7.47;;;;;;;;;;5121761;27;20409;-76
2023/03/08 04:28:17;;;;;;;10.07;6.90;;;;;;;;;;5139535;27;20424;-76
2023/03/08 04:30:43;;;;;;;13.37;7.43;;;;;;;;;;5139360;27;20415;-76
2023/03/08 04:33:09;;;;;;;13.88;7.18;;;;;;;;;;5138832;27;20412;-76
2023/03/08 04:35:35;;;;;;;17.67;7.10;;;;;;;;;;5139290;27;20257;-76
2023/03/08 04:38:01;;;;;;;16.03;8.17;;;;;;;;;;5138480;27;20393;-76
2023/03/08 04:40:28;;;;;;;12.43;7.77;;;;;;;;;;5139290;27;20427;-76
2023/03/08 04:42:54;;;;;;;17.05;8.98;;;;;;;;;;5139033;27;20464;-76
2023/03/08 04:45:20;;;;;;;16.65;7.93;;;;;;;;;;5138851;27;20564;-75
2023/03/08 04:47:46;;;;;;;12.50;8.30;;;;;;;;;;5139292;27;20175;-76
2023/03/08 04:50:12;;;;;;;18.98;9.25;;;;;;;;;;5139188;27;20164;-76
2023/03/08 04:52:38;;;;;;;13.50;8.18;;;;;;;;;;5139344;27;20175;-76
2023/03/08 04:55:05;;;;;;;15.48;9.15;;;;;;;;;;5138955;27;20197;-76
2023/03/08 04:57:31;;;;;;;14.18;9.32;;;;;;;;;;5138847;27;20204;-76
2023/03/08 04:59:57;;;;;;;14.27;8.45;;;;;;;;;;5138403;27;20171;-76
2023/03/08 05:02:23;;;;;;;12.52;8.18;;;;;;;;;;5138779;27;20228;-76
2023/03/08 05:04:49;;;;;;;14.70;8.57;;;;;;;;;;5139176;27;20222;-76
2023/03/08 05:07:15;;;;;;;12.77;8.00;;;;;;;;;;5138673;27;20178;-76
2023/03/08 05:09:41;;;;;;;13.15;8.25;;;;;;;;;;5120562;27;20405;-76
2023/03/08 05:12:07;;;;;;;12.77;8.50;;;;;;;;;;5137856;27;20631;-76
2023/03/08 05:14:33;;;;;;;11.77;8.32;;;;;;;;;;5138913;27;20397;-76
2023/03/08 05:16:59;;;;;;;11.27;7.40;;;;;;;;;;5138530;27;20171;-76
2023/03/08 05:19:25;;;;;;;13.43;8.15;;;;;;;;;;5138335;27;20400;-76
2023/03/08 05:21:51;;;;;;;18.00;9.10;;;;;;;;;;5138217;27;20538;-76
2023/03/08 05:24:17;;;;;;;15.15;8.65;;;;;;;;;;5138091;27;20407;-76
2023/03/08 05:26:43;;;;;;;11.55;7.40;;;;;;;;;;5138371;27;20608;-76
2023/03/08 05:29:09;;;;;;;10.60;7.38;;;;;;;;;;5120247;28;20186;-77
2023/03/08 05:31:36;;;;;;;11.17;6.43;;;;;;;;;;5138667;27;20220;-76
2023/03/08 05:34:02;;;;;;;11.82;7.25;;;;;;;;;;5137123;28;20425;-77
2023/03/08 05:36:28;;;;;;;12.43;6.85;;;;;;;;;;5137063;28;20178;-76
2023/03/08 05:38:54;;;;;;;13.00;6.40;;;;;;;;;;5137002;28;20179;-76
2023/03/08 05:41:20;;;;;;;9.45;6.53;;;;;;;;;;5136205;27;20171;-76
2023/03/08 05:43:47;;;;;;;9.63;6.45;;;;;;;;;;5141822;27;20539;-76
2023/03/08 05:46:14;;;;;;;9.38;6.18;;;;;;;;;;5142170;27;20238;-76
2023/03/08 05:48:40;;;;;;;8.55;5.97;;;;;;;;;;5142826;27;20230;-76
2023/03/08 05:51:08;;;;;;;10.80;7.07;;;;;;;;;;5123766;27;20203;-76
2023/03/08 05:53:34;;;;;;;12.68;6.70;;;;;;;;;;5142535;27;20179;-76
2023/03/08 05:56:10;;;;;;;9.25;6.30;;;;;;;;;;5142132;27;20175;-76
2023/03/08 05:58:36;;;;;;;8.82;6.78;;;;;;;;;;5142173;27;20170;-76
2023/03/08 06:01:09;;;;;;;10.05;6.78;;;;;;;;;;5141770;27;20175;-77
2023/03/08 06:03:35;;;;;;;11.23;7.28;;;;;;;;;;5141900;27;20199;-76
2023/03/08 06:06:01;;;;;;;12.02;7.55;;;;;;;;;;5141383;27;20230;-76
2023/03/08 06:08:27;;;;;;;10.70;7.63;;;;;;;;;;5142396;27;20588;-76
2023/03/08 06:10:53;;;;;;;14.30;7.80;;;;;;;;;;5141807;27;20224;-76
2023/03/08 06:13:19;;;;;;;13.30;8.20;;;;;;;;;;5141205;27;20532;-76
2023/03/08 06:15:45;;;;;;;16.13;8.30;;;;;;;;;;5141864;27;20501;-76
2023/03/08 06:18:11;;;;;;;13.00;8.73;;;;;;;;;;5141171;27;20400;-76
2023/03/08 06:20:37;;;;;;;13.40;8.97;;;;;;;;;;5141468;27;20534;-76
2023/03/08 06:23:03;;;;;;;16.73;10.05;;;;;;;;;;5141279;27;20467;-76
2023/03/08 06:25:29;;;;;;;13.40;8.83;;;;;;;;;;5141539;27;20542;-76
2023/03/08 06:27:55;;;;;;;13.10;8.90;;;;;;;;;;5141352;27;20492;-76
2023/03/08 06:30:21;;;;;;;14.57;9.03;;;;;;;;;;5141102;27;20401;-76
2023/03/08 06:32:47;;;;;;;11.15;8.13;;;;;;;;;;5141837;27;20408;-76
2023/03/08 06:35:13;;;;;;;11.20;8.17;;;;;;;;;;5141219;27;20189;-77
2023/03/08 06:37:39;;;;;;;14.87;9.07;;;;;;;;;;5141343;27;20747;-76
2023/03/08 06:40:07;;;;;;;15.57;7.70;;;;;;;;;;5123609;27;20435;-76
2023/03/08 06:42:33;;;;;;;12.05;7.75;;;;;;;;;;5141358;27;20662;-76
2023/03/08 06:44:59;;;;;;;10.02;6.25;;;;;;;;;;5141255;27;20234;-76
2023/03/08 06:47:27;;;;;;;11.25;7.47;;;;;;;;;;5141168;27;20187;-76
2023/03/08 06:49:53;;;;;;;14.15;8.10;;;;;;;;;;5122222;27;20178;-76
2023/03/08 06:52:19;;;;;;;9.27;6.00;;;;;;;;;;5140584;27;20258;-76
2023/03/08 06:54:45;;;;;;;12.48;7.22;;;;;;;;;;5139829;27;20202;-77
2023/03/08 06:57:11;;;;;;;10.17;7.03;;;;;;;;;;5140874;27;20179;-76
2023/03/08 06:59:37;;;;;;;12.30;7.70;;;;;;;;;;5141456;27;20404;-76
2023/03/08 07:02:03;;;;;;;11.70;7.57;;;;;;;;;;5140725;27;20405;-76
2023/03/08 07:04:29;;;;;;;9.80;6.60;;;;;;;;;;5139918;27;20889;-76
2023/03/08 07:06:55;;;;;;;12.10;8.00;;;;;;;;;;5141150;27;20419;-77
2023/03/08 07:09:21;;;;;;;17.80;7.73;;;;;;;;;;5140333;27;20407;-76
2023/03/08 07:11:46;;;;;;;11.53;7.47;;;;;;;;;;5140914;27;20499;-76
2023/03/08 07:14:12;;;;;;;15.90;8.00;;;;;;;;;;5140319;27;20405;-76
2023/03/08 07:16:38;;;;;;;11.67;7.90;;;;;;;;;;5140206;27;20458;-77
2023/03/08 07:19:04;;;;;;;13.10;6.90;;;;;;;;;;5122099;27;20489;-77
2023/03/08 07:21:30;;;;;;;13.97;8.10;;;;;;;;;;5140879;27;20404;-76
2023/03/08 07:23:56;;;;;;;11.23;7.60;;;;;;;;;;5121907;27;20495;-77
2023/03/08 07:26:22;;;;;;;13.60;9.02;;;;;;;;;;5140375;27;20176;-76
2023/03/08 07:28:50;;;;;;;15.10;8.88;;;;;;;;;;5141230;27;20174;-76
2023/03/08 07:31:16;;;;;;;15.48;8.77;;;;;;;;;;5140045;27;20173;-76
2023/03/08 07:33:42;;;;;;;16.58;10.32;;;;;;;;;;5140356;27;20255;-76
2023/03/08 07:36:08;;;;;;;13.00;9.38;;;;;;;;;;5140398;27;20255;-76
2023/03/08 07:38:34;;;;;;;16.30;10.60;;;;;;;;;;5122209;27;20606;-76
2023/03/08 07:40:59;;;;;;;16.37;10.27;;;;;;;;;;5140378;27;20206;-76
2023/03/08 07:43:25;;;;;;;16.57;10.10;;;;;;;;;;5139887;27;21005;-76
2023/03/08 07:45:51;;;;;;;18.08;11.77;;;;;;;;;;5140423;27;20397;-76
2023/03/08 07:48:17;;;;;;;16.90;10.63;;;;;;;;;;5139277;27;20175;-76
2023/03/08 07:50:43;;;;;;;17.63;13.10;;;;;;;;;;5139936;27;20992;-76
2023/03/08 07:53:09;;;;;;;18.60;11.83;;;;;;;;;;5139900;27;20171;-76
2023/03/08 07:55:37;;;;;;;17.50;11.20;;;;;;;;;;5140274;27;20407;-76
2023/03/08 07:58:03;;;;;;;19.40;11.70;;;;;;;;;;5139724;27;20441;-76
2023/03/08 08:00:29;;;;;;;20.25;13.20;;;;;;;;;;5139945;27;20171;-76
2023/03/08 08:02:56;;;;;;;27.07;12.77;;;;;;;;;;5139616;27;20244;-76
2023/03/08 08:05:22;;;;;;;19.48;13.27;;;;;;;;;;5138720;27;20464;-77
2023/03/08 08:07:48;;;;;;;20.35;13.23;;;;;;;;;;5140061;27;20180;-77
2023/03/08 08:10:14;;;;;;;20.52;13.40;;;;;;;;;;5139331;27;20173;-76
2023/03/08 08:12:40;;;;;;;20.75;13.38;;;;;;;;;;5140005;27;20179;-77
2023/03/08 08:15:06;;;;;;;21.75;13.80;;;;;;;;;;5139648;27;20175;-77
2023/03/08 08:17:32;;;;;;;22.35;13.82;;;;;;;;;;5138756;27;20190;-77
2023/03/08 08:19:58;;;;;;;22.70;14.05;;;;;;;;;;5139535;27;20163;-77
2023/03/08 08:22:25;;;;;;;22.85;13.35;;;;;;;;;;5138902;27;20709;-77
2023/03/08 08:24:51;;;;;;;19.45;12.93;;;;;;;;;;5139283;27;20525;-78
2023/03/08 08:27:17;;;;;;;22.25;13.10;;;;;;;;;;5138697;27;20174;-79
2023/03/08 08:29:45;;;;;;;21.00;12.50;;;;;;;;;;5138429;27;20245;-78
2023/03/08 08:32:11;;;;;;;21.60;13.60;;;;;;;;;;5138654;27;20166;-78
2023/03/08 08:34:37;;;;;;;19.65;13.38;;;;;;;;;;5138145;27;20289;-78
2023/03/08 08:37:03;;;;;;;20.30;12.70;;;;;;;;;;5138669;27;20203;-79
2023/03/08 08:39:29;;;;;;;24.65;14.98;;;;;;;;;;5138005;27;20392;-78
2023/03/08 08:41:55;;;;;;;23.35;13.95;;;;;;;;;;5138061;27;20175;-78
2023/03/08 08:44:21;;;;;;;21.92;14.95;;;;;;;;;;5138131;27;20179;-77
2023/03/08 08:46:47;;;;;;;23.75;14.95;;;;;;;;;;5138726;27;20187;-77
2023/03/08 08:49:13;;;;;;;24.63;15.93;;;;;;;;;;5137771;27;20563;-77
2023/03/08 08:51:39;;;;;;;27.48;16.33;;;;;;;;;;5120301;27;20408;-77
2023/03/08 08:54:05;;;;;;;26.77;14.52;;;;;;;;;;5138111;27;20185;-77
2023/03/08 08:56:31;;;;;;;25.63;16.60;;;;;;;;;;5138567;27;20225;-77
2023/03/08 08:58:59;;;;;;;25.90;16.25;;;;;;;;;;5139045;27;20231;-77
2023/03/08 09:01:26;;;;;;;27.15;17.20;;;;;;;;;;5138407;27;20175;-77
2023/03/08 09:03:52;;;;;;;30.15;19.48;;;;;;;;;;5138874;27;20272;-77
2023/03/08 09:06:19;;;;;;;28.27;17.70;;;;;;;;;;5138681;27;20221;-77
2023/03/08 09:08:49;;;;;;;30.05;18.13;;;;;;;;;;5139336;27;20582;-76
2023/03/08 09:11:15;;;;;;;29.83;18.23;;;;;;;;;;5139114;27;20179;-76
2023/03/08 09:13:41;;;;;;;30.40;18.60;;;;;;;;;;5138801;27;20751;-76
2023/03/08 09:16:16;;;;;;;30.53;19.33;;;;;;;;;;5138854;27;20172;-76
2023/03/08 09:18:42;;;;;;;33.53;19.23;;;;;;;;;;5138315;27;20401;-76
2023/03/08 09:21:08;;;;;;;32.42;18.90;;;;;;;;;;5138770;27;20173;-76
2023/03/08 09:23:34;;;;;;;33.83;21.17;;;;;;;;;;5138479;27;20723;-76
2023/03/08 09:26:00;;;;;;;40.93;21.80;;;;;;;;;;5138058;27;20820;-76
2023/03/08 09:28:26;;;;;;;33.30;19.90;;;;;;;;;;5138070;27;20425;-76
2023/03/08 09:30:52;;;;;;;36.50;22.23;;;;;;;;;;5120307;28;20402;-77
2023/03/08 09:33:18;;;;;;;38.30;22.10;;;;;;;;;;5138814;28;20753;-77
2023/03/08 09:35:44;;;;;;;36.90;23.00;;;;;;;;;;5138167;28;20181;-76
2023/03/08 09:38:10;;;;;;;44.78;25.40;;;;;;;;;;5138451;28;20411;-76
2023/03/08 09:40:42;;;;;;;45.05;23.77;;;;;;;;;;5138352;28;20177;-76
2023/03/08 09:43:12;;;;;;;36.35;24.48;;;;;;;;;;5138897;28;20222;-76
2023/03/08 09:45:38;;;;;;;39.38;24.75;;;;;;;;;;5138255;28;20181;-77
2023/03/08 09:48:15;;;;;;;37.83;21.90;;;;;;;;;;5138097;28;20196;-76
2023/03/08 09:50:43;;;;;;;36.63;22.83;;;;;;;;;;5138509;28;20567;-77
2023/03/08 09:53:13;;;;;;;38.15;24.15;;;;;;;;;;5137497;28;20185;-76
2023/03/08 09:55:43;;;;;;;34.58;21.90;;;;;;;;;;5138085;28;20174;-77
2023/03/08 09:58:28;;;;;;;35.00;22.45;;;;;;;;;;5138763;28;20170;-77
2023/03/08 10:00:57;;;;;;;34.83;21.40;;;;;;;;;;5138578;28;20197;-77
2023/03/08 10:03:41;;;;;;;38.67;21.85;;;;;;;;;;5137964;28;20206;-76
2023/03/08 10:06:25;;;;;;;39.15;23.55;;;;;;;;;;5138175;28;20260;-76
2023/03/08 10:09:10;;;;;;;39.63;23.45;;;;;;;;;;5138722;28;20284;-76
2023/03/08 10:11:47;;;;;;;34.20;22.10;;;;;;;;;;5137762;28;20206;-76
2023/03/08 10:14:19;;;;;;;29.98;19.15;;;;;;;;;;5137950;28;20179;-76
2023/03/08 10:16:47;;;;;;;35.55;21.77;;;;;;;;;;5138747;28;20174;-76
2023/03/08 10:19:22;;;;;;;42.75;21.75;;;;;;;;;;5138375;28;20173;-76
2023/03/08 10:21:48;;;;;;;37.08;23.65;;;;;;;;;;5138410;28;20779;-76
2023/03/08 10:24:16;;;;;;;35.78;21.73;;;;;;;;;;5139159;28;20216;-76
2023/03/08 10:26:42;;;;;;;34.03;21.13;;;;;;;;;;5137688;28;20161;-77
2023/03/08 10:29:11;;;;;;;34.30;22.88;;;;;;;;;;5140156;27;20263;-77
2023/03/08 10:31:37;;;;;;;33.83;22.55;;;;;;;;;;5141136;27;20198;-76
2023/03/08 10:34:11;;;;;;;34.30;22.60;;;;;;;;;;5142580;27;20211;-77
2023/03/08 10:36:46;;;;;;;33.83;21.00;;;;;;;;;;5141980;27;20200;-76
2023/03/08 10:39:13;;;;;;;32.80;20.33;;;;;;;;;;5141974;27;20163;-77
2023/03/08 10:41:42;;;;;;;34.28;21.15;;;;;;;;;;5141274;27;20274;-77
2023/03/08 10:44:29;;;;;;;34.83;23.23;;;;;;;;;;5123187;27;20277;-76
2023/03/08 10:46:55;;;;;;;38.60;22.02;;;;;;;;;;5141430;27;20201;-76
2023/03/08 10:49:23;;;;;;;31.38;22.35;;;;;;;;;;5140992;27;20317;-78
2023/03/08 10:51:53;;;;;;;33.58;21.80;;;;;;;;;;5141462;27;20166;-77
2023/03/08 10:54:19;;;;;;;29.70;21.80;;;;;;;;;;5140326;27;20378;-77
2023/03/08 10:56:54;;;;;;;31.58;21.90;;;;;;;;;;5141273;27;20220;-76
2023/03/08 10:59:26;;;;;;;32.38;22.92;;;;;;;;;;5140777;27;20532;-78
2023/03/08 11:01:53;;;;;;;29.45;21.00;;;;;;;;;;5123337;27;20175;-77
2023/03/08 11:04:20;;;;;;;31.55;23.05;;;;;;;;;;5140761;27;20232;-77
2023/03/08 11:06:47;;;;;;;34.05;21.17;;;;;;;;;;5141452;27;20520;-77
2023/03/08 11:09:26;;;;;;;35.25;23.83;;;;;;;;;;5140495;27;20503;-77
2023/03/08 11:11:52;;;;;;;31.63;22.63;;;;;;;;;;5140242;27;20186;-78
2023/03/08 11:14:18;;;;;;;31.02;22.67;;;;;;;;;;5140597;27;20196;-77
2023/03/08 11:16:45;;;;;;;31.23;22.20;;;;;;;;;;5105132;27;20170;-77
2023/03/08 11:19:32;;;;;;;30.73;23.42;;;;;;;;;;5140814;27;20171;-77
2023/03/08 11:22:11;;;;;;;30.65;21.65;;;;;;;;;;5140949;27;20226;-77
2023/03/08 11:24:47;;;;;;;29.73;22.60;;;;;;;;;;5140063;27;20178;-78
2023/03/08 11:27:29;;;;;;;33.20;24.65;;;;;;;;;;5140031;27;20180;-77
2023/03/08 11:30:13;;;;;;;34.08;23.80;;;;;;;;;;5139546;27;20170;-78
2023/03/08 11:32:54;;;;;;;41.75;23.67;;;;;;;;;;5139366;27;20180;-77
2023/03/08 11:35:29;;;;;;;35.20;23.70;;;;;;;;;;5121892;27;20178;-77
2023/03/08 11:38:09;;;;;;;35.03;24.10;;;;;;;;;;5140644;27;20196;-77
2023/03/08 11:40:52;;;;;;;35.42;25.85;;;;;;;;;;5138806;27;20185;-77
2023/03/08 11:43:34;;;;;;;36.63;25.80;;;;;;;;;;5140546;27;20206;-77
2023/03/08 11:46:06;;;;;;;38.72;26.90;;;;;;;;;;5140072;27;20196;-77
2023/03/08 11:48:51;;;;;;;36.03;24.33;;;;;;;;;;5121936;27;20175;-77
2023/03/08 11:51:21;;;;;;;33.88;23.92;;;;;;;;;;5140330;27;20179;-77
2023/03/08 11:53:53;;;;;;;33.80;23.63;;;;;;;;;;5140097;27;20207;-77
2023/03/08 11:56:27;;;;;;;34.60;25.08;;;;;;;;;;5140264;27;20200;-77
2023/03/08 11:59:09;;;;;;;33.30;22.48;;;;;;;;;;5139922;27;20173;-77
2023/03/08 12:01:41;;;;;;;33.70;23.65;;;;;;;;;;5139322;27;20582;-77
2023/03/08 12:04:11;;;;;;;31.52;23.90;;;;;;;;;;5139374;27;20225;-77
2023/03/08 12:06:42;;;;;;;32.35;22.90;;;;;;;;;;5139302;27;20178;-77
2023/03/08 12:09:13;;;;;;;28.15;20.40;;;;;;;;;;5139414;27;20173;-77
2023/03/08 12:11:59;;;;;;;27.80;18.95;;;;;;;;;;5138929;27;20191;-77
2023/03/08 12:14:29;;;;;;;24.95;19.30;;;;;;;;;;5139380;27;20166;-78
2023/03/08 12:17:12;;;;;;;23.98;17.95;;;;;;;;;;5140010;27;20171;-77
2023/03/08 12:19:41;;;;;;;20.52;17.25;;;;;;;;;;5139650;27;20526;-77
2023/03/08 12:22:22;;;;;;;23.40;17.02;;;;;;;;;;5140324;27;20260;-77
2023/03/08 12:24:55;;;;;;;23.17;17.58;;;;;;;;;;5121139;27;20572;-77
2023/03/08 12:27:27;;;;;;;16.90;14.40;;;;;;;;;;5139233;27;20175;-77
2023/03/08 12:29:59;;;;;;;21.00;16.58;;;;;;;;;;5138873;27;20171;-76
2023/03/08 12:32:25;;;;;;;20.35;15.63;;;;;;;;;;5138881;27;20533;-78
2023/03/08 12:35:06;;;;;;;17.00;14.90;;;;;;;;;;5138627;27;20176;-76
2023/03/08 12:37:32;;;;;;;19.33;15.30;;;;;;;;;;5138905;27;20216;-76
2023/03/08 12:40:02;;;;;;;19.83;15.77;;;;;;;;;;5138719;27;20174;-76
2023/03/08 12:42:30;;;;;;;20.48;16.20;;;;;;;;;;5138189;27;20719;-76
2023/03/08 12:45:07;;;;;;;21.63;16.52;;;;;;;;;;5138987;27;20523;-76
2023/03/08 12:47:33;;;;;;;20.63;17.58;;;;;;;;;;5138730;27;20230;-77
2023/03/08 12:50:07;;;;;;;22.83;17.88;;;;;;;;;;5138753;27;20173;-76
2023/03/08 12:52:34;;;;;;;20.67;16.83;;;;;;;;;;5138298;27;20199;-76
2023/03/08 12:55:00;;;;;;;20.08;16.65;;;;;;;;;;5138676;27;20528;-76
2023/03/08 12:57:30;;;;;;;19.67;17.30;;;;;;;;;;5139309;27;20174;-76
2023/03/08 12:59:58;;;;;;;25.00;17.98;;;;;;;;;;5138862;27;20175;-76
2023/03/08 13:02:24;;;;;;;21.67;16.77;;;;;;;;;;5120034;27;20198;-76
2023/03/08 13:05:00;;;;;;;20.17;16.08;;;;;;;;;;5119494;27;20250;-77
2023/03/08 13:07:31;;;;;;;19.20;16.17;;;;;;;;;;5138615;27;20172;-76
2023/03/08 13:10:08;;;;;;;22.27;16.70;;;;;;;;;;5138417;27;20159;-76
2023/03/08 13:12:52;;;;;;;21.67;17.27;;;;;;;;;;5138328;27;20553;-76
2023/03/08 13:15:23;;;;;;;23.08;18.08;;;;;;;;;;5138520;27;20149;-76
2023/03/08 13:17:49;;;;;;;20.02;17.35;;;;;;;;;;5138228;27;20168;-76
2023/03/08 13:20:15;;;;;;;21.52;16.40;;;;;;;;;;5138830;27;20172;-76
2023/03/08 13:22:53;;;;;;;22.95;19.00;;;;;;;;;;5138590;27;20262;-76
2023/03/08 13:25:27;;;;;;;19.85;17.60;;;;;;;;;;5138711;27;20172;-76
2023/03/08 13:28:11;;;;;;;22.73;17.85;;;;;;;;;;5138277;27;20258;-76
2023/03/08 13:30:42;;;;;;;22.65;17.77;;;;;;;;;;5137980;27;20177;-76
2023/03/08 13:33:12;;;;;;;21.05;17.17;;;;;;;;;;5120326;27;20189;-75
2023/03/08 13:35:38;;;;;;;20.80;17.35;;;;;;;;;;5137958;28;20197;-76
2023/03/08 13:38:04;;;;;;;19.70;16.30;;;;;;;;;;5137900;28;20174;-76
2023/03/08 13:40:30;;;;;;;16.80;14.90;;;;;;;;;;5137514;28;20183;-80
2023/03/08 13:42:58;;;;;;;20.67;16.75;;;;;;;;;;5138363;28;20293;-76
2023/03/08 13:45:24;;;;;;;20.40;17.13;;;;;;;;;;5137877;28;20248;-76
2023/03/08 13:47:51;;;;;;;19.73;16.23;;;;;;;;;;5138207;28;20182;-76
2023/03/08 13:50:19;;;;;;;20.60;17.65;;;;;;;;;;5138142;28;20217;-76
2023/03/08 13:52:46;;;;;;;18.92;16.92;;;;;;;;;;5138042;28;20535;-76
2023/03/08 13:55:18;;;;;;;18.45;15.07;;;;;;;;;;5138757;28;20239;-76
2023/03/08 13:57:47;;;;;;;21.15;16.02;;;;;;;;;;5138133;28;20226;-76
2023/03/08 14:00:19;;;;;;;18.40;16.40;;;;;;;;;;5138090;28;20224;-76
2023/03/08 14:02:46;;;;;;;20.77;16.13;;;;;;;;;;5138220;27;20202;-77
2023/03/08 14:05:17;;;;;;;20.02;16.25;;;;;;;;;;5141795;27;20312;-78
2023/03/08 14:07:43;;;;;;;22.85;18.35;;;;;;;;;;5141914;27;20236;-76
2023/03/08 14:10:12;;;;;;;19.67;17.42;;;;;;;;;;5142232;27;20634;-76
2023/03/08 14:12:39;;;;;;;21.13;17.30;;;;;;;;;;5141453;27;20182;-76
2023/03/08 14:15:05;;;;;;;19.88;16.55;;;;;;;;;;5142274;27;20178;-76
2023/03/08 14:17:34;;;;;;;21.25;17.95;;;;;;;;;;5141990;27;20169;-76
2023/03/08 14:20:03;;;;;;;22.70;18.05;;;;;;;;;;5142003;27;20203;-76
2023/03/08 14:22:30;;;;;;;22.77;19.05;;;;;;;;;;5123634;27;20263;-76
2023/03/08 14:24:59;;;;;;;26.27;19.10;;;;;;;;;;5141574;27;20170;-76
2023/03/08 14:27:44;;;;;;;23.42;20.13;;;;;;;;;;5123829;27;20171;-77
2023/03/08 14:30:10;;;;;;;24.05;19.38;;;;;;;;;;5142343;27;20170;-76
2023/03/08 14:32:37;;;;;;;26.45;20.33;;;;;;;;;;5141722;27;20520;-76